createdAt,value
2018-12-04T00:00:42.748Z,82.95
2018-12-04T00:03:10.421Z,83.49
2018-12-04T00:05:37.859Z,83.88
2018-12-04T00:08:05.637Z,83.94
2018-12-04T00:10:33.194Z,83.99
2018-12-04T00:13:00.801Z,84.06
2018-12-04T00:15:28.333Z,84.37
2018-12-04T00:17:55.911Z,84.27
2018-12-04T00:20:23.649Z,83.95
2018-12-04T00:22:51.288Z,84.29
2018-12-04T00:25:18.921Z,84.37
2018-12-04T00:27:46.615Z,83.97
2018-12-04T00:30:14.321Z,83.12
2018-12-04T00:32:41.936Z,82.90
2018-12-04T00:35:09.424Z,82.61
2018-12-04T00:37:37.272Z,83.03
2018-12-04T00:40:06.782Z,83.18
2018-12-04T00:42:34.392Z,83.46
2018-12-04T00:45:01.879Z,82.54
2018-12-04T00:47:29.640Z,83.02
2018-12-04T00:49:57.340Z,82.37
2018-12-04T00:52:25.070Z,81.71
2018-12-04T00:54:52.869Z,82.30
2018-12-04T00:57:20.506Z,83.22
2018-12-04T00:59:48.044Z,83.74
2018-12-04T01:02:15.556Z,84.55
2018-12-04T01:04:43.154Z,84.64
2018-12-04T01:07:10.703Z,84.40
2018-12-04T01:09:38.327Z,84.40
2018-12-04T01:12:06.037Z,84.56
2018-12-04T01:14:33.795Z,84.98
2018-12-04T01:17:01.449Z,84.93
2018-12-04T01:19:28.971Z,85.07
2018-12-04T01:21:56.403Z,85.77
2018-12-04T01:24:24.161Z,86.05
2018-12-04T01:26:58.530Z,86.50
2018-12-04T01:29:26.220Z,86.21
2018-12-04T01:31:54.024Z,86.26
2018-12-04T01:34:21.869Z,85.44
2018-12-04T01:36:49.987Z,85.30
2018-12-04T01:39:17.589Z,84.92
2018-12-04T01:41:45.210Z,85.54
2018-12-04T01:44:12.729Z,85.77
2018-12-04T01:46:40.430Z,85.51
2018-12-04T01:49:08.168Z,86.02
2018-12-04T01:51:35.720Z,86.31
2018-12-04T01:54:03.820Z,86.75
2018-12-04T01:56:31.307Z,86.44
2018-12-04T01:58:58.945Z,86.59
2018-12-04T02:01:26.683Z,86.58
2018-12-04T02:03:54.450Z,86.51
2018-12-04T02:06:22.055Z,86.60
2018-12-04T02:08:49.467Z,86.48
2018-12-04T02:11:17.380Z,86.32
2018-12-04T02:13:44.797Z,85.52
2018-12-04T02:16:12.476Z,84.52
2018-12-04T02:18:40.198Z,84.50
2018-12-04T02:21:07.796Z,84.71
2018-12-04T02:23:35.495Z,85.27
2018-12-04T02:26:03.590Z,85.94
2018-12-04T02:28:40.514Z,85.56
2018-12-04T02:31:09.457Z,84.83
2018-12-04T02:33:37.135Z,84.50
2018-12-04T02:36:04.612Z,84.34
2018-12-04T02:38:32.192Z,83.63
2018-12-04T02:41:00.049Z,82.37
2018-12-04T02:43:28.127Z,82.08
2018-12-04T02:45:55.890Z,82.59
2018-12-04T02:48:23.628Z,82.52
2018-12-04T02:50:51.100Z,82.81
2018-12-04T02:53:18.684Z,82.44
2018-12-04T02:55:46.056Z,82.38
2018-12-04T02:58:13.608Z,81.56
2018-12-04T03:00:41.135Z,81.06
2018-12-04T03:03:08.851Z,81.19
2018-12-04T03:05:36.293Z,81.30
2018-12-04T03:08:03.992Z,81.38
2018-12-04T03:10:31.729Z,81.61
2018-12-04T03:12:59.299Z,81.30
2018-12-04T03:15:27.239Z,81.94
2018-12-04T03:17:54.888Z,82.28
2018-12-04T03:20:22.523Z,81.34
2018-12-04T03:22:50.383Z,80.73
2018-12-04T03:25:18.082Z,80.20
2018-12-04T03:27:45.955Z,78.73
2018-12-04T03:30:13.567Z,78.24
2018-12-04T03:32:41.193Z,77.75
2018-12-04T03:35:08.979Z,78.04
2018-12-04T03:37:36.436Z,78.50
2018-12-04T03:40:06.174Z,77.92
2018-12-04T03:42:33.618Z,76.98
2018-12-04T03:45:01.456Z,77.47
2018-12-04T03:47:29.280Z,78.26
2018-12-04T03:49:56.972Z,79.41
2018-12-04T03:52:24.577Z,78.77
2018-12-04T03:54:52.276Z,79.28
2018-12-04T03:57:20.004Z,78.19
2018-12-04T03:59:47.883Z,78.22
2018-12-04T04:02:15.594Z,77.96
2018-12-04T04:04:43.302Z,77.77
2018-12-04T04:07:10.837Z,77.12
2018-12-04T04:09:38.253Z,77.65
2018-12-04T04:12:05.569Z,76.84
2018-12-04T04:14:33.295Z,75.86
2018-12-04T04:17:00.892Z,75.63
2018-12-04T04:19:28.309Z,76.10
2018-12-04T04:21:56.053Z,75.93
2018-12-04T04:24:23.612Z,76.01
2018-12-04T04:26:51.881Z,76.10
2018-12-04T04:29:19.713Z,76.49
2018-12-04T04:31:47.402Z,76.98
2018-12-04T04:34:15.068Z,76.91
2018-12-04T04:36:42.785Z,75.67
2018-12-04T04:39:10.285Z,75.91
2018-12-04T04:41:38.001Z,75.74
2018-12-04T04:44:05.711Z,75.95
2018-12-04T04:46:33.285Z,76.27
2018-12-04T04:49:00.998Z,75.42
2018-12-04T04:51:28.369Z,75.01
2018-12-04T04:53:55.963Z,75.83
2018-12-04T04:56:23.624Z,76.07
2018-12-04T04:58:52.169Z,75.45
2018-12-04T05:01:20.192Z,75.96
2018-12-04T05:03:47.775Z,76.11
2018-12-04T05:06:15.449Z,77.03
2018-12-04T05:08:42.842Z,77.31
2018-12-04T05:11:10.364Z,76.84
2018-12-04T05:13:38.080Z,77.07
2018-12-04T05:16:05.756Z,77.72
2018-12-04T05:18:33.504Z,78.36
2018-12-04T05:21:00.860Z,78.08
2018-12-04T05:23:28.388Z,77.05
2018-12-04T05:25:56.212Z,76.64
2018-12-04T05:28:23.800Z,76.74
2018-12-04T05:30:51.426Z,77.51
2018-12-04T05:33:19.272Z,77.55
2018-12-04T05:35:46.678Z,77.80
2018-12-04T05:38:14.388Z,77.83
2018-12-04T05:40:42.060Z,77.85
2018-12-04T05:43:09.844Z,77.95
2018-12-04T05:45:37.584Z,76.81
2018-12-04T05:48:04.960Z,76.47
2018-12-04T05:50:32.608Z,76.21
2018-12-04T05:53:11.456Z,76.54
2018-12-04T05:55:39.102Z,77.09
2018-12-04T05:58:06.454Z,77.46
2018-12-04T06:00:34.049Z,77.10
2018-12-04T06:03:02.065Z,77.36
2018-12-04T06:05:29.526Z,77.59
2018-12-04T06:07:57.277Z,77.46
2018-12-04T06:10:24.972Z,77.64
2018-12-04T06:12:52.836Z,78.02
2018-12-04T06:15:20.629Z,78.07
2018-12-04T06:17:48.245Z,77.89
2018-12-04T06:20:15.841Z,77.47
2018-12-04T06:22:43.475Z,77.37
2018-12-04T06:25:11.187Z,77.33
2018-12-04T06:27:38.933Z,77.25
2018-12-04T06:30:07.477Z,77.40
2018-12-04T06:32:35.205Z,76.39
2018-12-04T06:35:02.807Z,76.00
2018-12-04T06:37:30.491Z,75.98
2018-12-04T06:39:57.969Z,76.35
2018-12-04T06:42:25.969Z,75.03
2018-12-04T06:44:53.532Z,75.36
2018-12-04T06:47:21.174Z,75.12
2018-12-04T06:49:48.991Z,75.72
2018-12-04T06:52:16.624Z,75.89
2018-12-04T06:54:44.472Z,75.97
2018-12-04T06:57:12.039Z,76.24
2018-12-04T06:59:39.848Z,76.16
2018-12-04T07:02:07.592Z,75.94
2018-12-04T07:04:35.277Z,76.32
2018-12-04T07:07:02.917Z,76.41
2018-12-04T07:09:30.559Z,75.13
2018-12-04T07:12:02.432Z,75.29
2018-12-04T07:14:27.942Z,75.72
2018-12-04T07:16:55.571Z,75.65
2018-12-04T07:19:23.295Z,75.74
2018-12-04T07:21:51.221Z,76.06
2018-12-04T07:24:18.908Z,75.95
2018-12-04T07:26:46.434Z,75.43
2018-12-04T07:29:14.160Z,75.07
2018-12-04T07:31:41.740Z,75.18
2018-12-04T07:34:09.320Z,75.21
2018-12-04T07:36:37.194Z,75.84
2018-12-04T07:39:07.073Z,75.48
2018-12-04T07:41:34.737Z,75.16
2018-12-04T07:44:02.325Z,75.09
2018-12-04T07:46:30.155Z,75.04
2018-12-04T07:48:57.651Z,74.18
2018-12-04T07:51:25.257Z,74.22
2018-12-04T07:53:52.731Z,74.51
2018-12-04T07:56:20.419Z,74.14
2018-12-04T07:58:47.929Z,73.64
2018-12-04T08:01:15.623Z,73.79
2018-12-04T08:03:42.993Z,73.75
2018-12-04T08:06:11.319Z,73.78
2018-12-04T08:08:39.219Z,73.99
2018-12-04T08:11:07.137Z,73.46
2018-12-04T08:13:34.589Z,73.56
2018-12-04T08:16:02.245Z,73.04
2018-12-04T08:18:29.904Z,72.95
2018-12-04T08:20:57.473Z,72.65
2018-12-04T08:23:24.999Z,71.78
2018-12-04T08:25:52.501Z,71.27
2018-12-04T08:28:20.321Z,70.93
2018-12-04T08:30:48.145Z,70.69
2018-12-04T08:33:15.739Z,70.10
2018-12-04T08:35:43.112Z,69.47
2018-12-04T08:38:10.753Z,69.53
2018-12-04T08:40:38.248Z,68.74
2018-12-04T08:43:05.792Z,68.98
2018-12-04T08:45:33.591Z,69.61
2018-12-04T08:48:01.272Z,69.59
2018-12-04T08:50:29.668Z,69.55
2018-12-04T08:52:57.270Z,69.16
2018-12-04T08:55:24.785Z,68.98
2018-12-04T08:57:52.263Z,68.77
2018-12-04T09:00:20.199Z,69.05
2018-12-04T09:02:47.917Z,68.08
2018-12-04T09:05:15.644Z,66.92
2018-12-04T09:07:43.431Z,66.44
2018-12-04T09:10:11.085Z,66.04
2018-12-04T09:12:38.747Z,65.51
2018-12-04T09:15:06.537Z,65.79
2018-12-04T09:17:34.227Z,65.68
2018-12-04T09:20:02.076Z,64.55
2018-12-04T09:22:29.996Z,64.35
2018-12-04T09:24:57.702Z,63.48
2018-12-04T09:27:25.531Z,63.51
2018-12-04T09:29:53.184Z,64.33
2018-12-04T09:32:20.821Z,63.29
2018-12-04T09:34:48.611Z,62.91
2018-12-04T09:37:16.195Z,62.74
2018-12-04T09:39:43.867Z,62.91
2018-12-04T09:42:11.589Z,62.38
2018-12-04T09:44:39.291Z,58.04
2018-12-04T09:47:06.942Z,58.46
2018-12-04T09:49:34.936Z,58.39
2018-12-04T09:52:02.696Z,58.22
2018-12-04T09:54:30.277Z,59.03
2018-12-04T09:56:57.985Z,59.95
2018-12-04T09:59:26.210Z,59.32
2018-12-04T10:01:53.978Z,57.78
2018-12-04T10:04:21.580Z,57.70
2018-12-04T10:06:49.259Z,57.67
2018-12-04T10:09:17.058Z,57.15
2018-12-04T10:11:44.667Z,56.83
2018-12-04T10:14:12.377Z,57.39
2018-12-04T10:16:41.258Z,56.42
2018-12-04T10:19:08.824Z,56.12
2018-12-04T10:21:36.451Z,57.68
2018-12-04T10:24:04.185Z,58.63
2018-12-04T10:26:31.808Z,59.01
2018-12-04T10:28:59.457Z,58.71
2018-12-04T10:31:27.065Z,59.32
2018-12-04T10:33:54.795Z,59.39
2018-12-04T10:36:22.413Z,59.99
2018-12-04T10:38:49.998Z,59.44
2018-12-04T10:41:17.625Z,59.38
2018-12-04T10:43:45.179Z,59.07
2018-12-04T10:46:12.861Z,56.86
2018-12-04T10:48:40.440Z,57.03
2018-12-04T10:51:08.165Z,56.24
2018-12-04T10:53:35.795Z,55.85
2018-12-04T10:56:03.237Z,56.20
2018-12-04T10:58:30.933Z,55.74
2018-12-04T11:01:00.533Z,55.55
2018-12-04T11:03:38.169Z,55.58
2018-12-04T11:06:06.743Z,56.54
2018-12-04T11:08:34.423Z,55.43
2018-12-04T11:11:02.389Z,55.32
2018-12-04T11:13:30.454Z,56.17
2018-12-04T11:15:58.095Z,55.99
2018-12-04T11:18:25.691Z,55.70
2018-12-04T11:20:53.294Z,55.36
2018-12-04T11:23:20.827Z,56.32
2018-12-04T11:25:48.454Z,56.47
2018-12-04T11:28:16.022Z,56.60
2018-12-04T11:30:43.803Z,57.10
2018-12-04T11:33:11.571Z,58.08
2018-12-04T11:35:38.995Z,58.06
2018-12-04T11:38:06.646Z,58.14
2018-12-04T11:40:34.300Z,59.17
2018-12-04T11:43:01.930Z,59.74
2018-12-04T11:45:29.566Z,60.22
2018-12-04T11:47:56.934Z,60.26
2018-12-04T11:50:24.692Z,60.15
2018-12-04T11:52:52.370Z,59.97
2018-12-04T11:55:20.145Z,59.87
2018-12-04T11:57:47.804Z,58.92
2018-12-04T12:00:36.613Z,57.10
2018-12-04T12:03:04.567Z,58.08
2018-12-04T12:05:32.127Z,58.85
2018-12-04T12:07:59.813Z,58.06
2018-12-04T12:10:27.864Z,58.34
2018-12-04T12:12:55.442Z,58.68
2018-12-04T12:15:23.129Z,58.96
2018-12-04T12:17:50.870Z,60.09
2018-12-04T12:20:18.472Z,59.92
2018-12-04T12:22:46.349Z,61.11
2018-12-04T12:25:14.115Z,61.94
2018-12-04T12:27:42.547Z,61.66
2018-12-04T12:30:10.388Z,61.96
2018-12-04T12:32:38.192Z,62.61
2018-12-04T12:35:07.192Z,62.96
2018-12-04T12:37:34.959Z,63.00
2018-12-04T12:40:02.673Z,63.41
2018-12-04T12:42:30.391Z,63.46
2018-12-04T12:44:57.837Z,62.70
2018-12-04T12:47:25.565Z,60.04
2018-12-04T12:49:53.275Z,57.96
2018-12-04T12:52:21.045Z,58.92
2018-12-04T12:54:48.714Z,58.04
2018-12-04T12:57:16.418Z,57.43
2018-12-04T12:59:44.132Z,57.84
2018-12-04T13:02:11.641Z,58.24
2018-12-04T13:04:39.364Z,57.51
2018-12-04T13:07:07.023Z,57.02
2018-12-04T13:09:34.617Z,58.37
2018-12-04T13:12:02.407Z,57.12
2018-12-04T13:14:29.968Z,57.10
2018-12-04T13:16:57.487Z,56.29
2018-12-04T13:19:25.113Z,55.66
2018-12-04T13:21:52.701Z,55.28
2018-12-04T13:24:20.234Z,54.64
2018-12-04T13:26:47.753Z,54.46
2018-12-04T13:29:15.689Z,54.65
2018-12-04T13:31:43.411Z,54.92
2018-12-04T13:34:11.026Z,54.83
2018-12-04T13:36:38.946Z,55.33
2018-12-04T13:39:09.122Z,54.08
2018-12-04T13:41:36.931Z,53.44
2018-12-04T13:44:04.514Z,53.60
2018-12-04T13:46:32.634Z,54.08
2018-12-04T13:49:00.402Z,55.15
2018-12-04T13:51:28.047Z,56.21
2018-12-04T13:53:55.662Z,57.56
2018-12-04T13:56:23.375Z,59.17
2018-12-04T13:58:51.391Z,59.78
2018-12-04T14:01:19.162Z,60.38
2018-12-04T14:03:46.743Z,60.30
2018-12-04T14:06:14.458Z,62.29
2018-12-04T14:08:42.034Z,62.34
2018-12-04T14:11:09.817Z,63.08
2018-12-04T14:13:37.618Z,63.98
2018-12-04T14:16:05.233Z,65.27
2018-12-04T14:18:32.893Z,65.98
2018-12-04T14:21:00.450Z,66.77
2018-12-04T14:23:28.288Z,67.44
2018-12-04T14:25:56.162Z,67.48
2018-12-04T14:28:23.868Z,68.43
2018-12-04T14:30:51.477Z,68.56
2018-12-04T14:33:19.060Z,68.84
2018-12-04T14:35:46.496Z,68.32
2018-12-04T14:38:14.092Z,68.36
2018-12-04T14:40:41.824Z,68.57
2018-12-04T14:43:09.562Z,69.07
2018-12-04T14:45:37.274Z,69.27
2018-12-04T14:48:05.107Z,69.80
2018-12-04T14:50:32.728Z,70.89
2018-12-04T14:53:00.457Z,70.75
2018-12-04T14:55:28.007Z,70.87
2018-12-04T14:57:56.014Z,71.35
2018-12-04T15:00:23.991Z,71.69
2018-12-04T15:02:51.713Z,72.52
2018-12-04T15:05:19.477Z,72.69
2018-12-04T15:07:47.319Z,73.04
2018-12-04T15:10:15.230Z,73.19
2018-12-04T15:12:43.151Z,73.27
2018-12-04T15:15:10.623Z,73.98
2018-12-04T15:17:38.391Z,74.66
2018-12-04T15:20:07.601Z,75.00
2018-12-04T15:22:34.965Z,75.67
2018-12-04T15:25:03.142Z,76.26
2018-12-04T15:27:30.826Z,76.87
2018-12-04T15:29:59.492Z,77.18
2018-12-04T15:32:27.095Z,77.15
2018-12-04T15:34:54.758Z,77.42
2018-12-04T15:37:22.241Z,77.70
2018-12-04T15:39:50.126Z,78.13
2018-12-04T15:42:18.138Z,78.09
2018-12-04T15:44:45.933Z,77.90
2018-12-04T15:47:13.685Z,77.36
2018-12-04T15:49:41.461Z,77.17
2018-12-04T15:52:09.084Z,77.54
2018-12-04T15:54:37.043Z,77.08
2018-12-04T15:57:04.716Z,76.82
2018-12-04T15:59:32.320Z,76.94
2018-12-04T16:01:59.963Z,77.32
2018-12-04T16:04:27.907Z,77.07
2018-12-04T16:06:55.568Z,77.17
2018-12-04T16:09:23.306Z,76.69
2018-12-04T16:11:50.808Z,76.56
2018-12-04T16:14:18.520Z,76.47
2018-12-04T16:16:46.150Z,76.55
2018-12-04T16:19:13.576Z,76.56
2018-12-04T16:21:41.304Z,77.13
2018-12-04T16:24:08.678Z,77.19
2018-12-04T16:26:36.518Z,77.68
2018-12-04T16:29:04.125Z,78.07
2018-12-04T16:31:31.796Z,78.21
2018-12-04T16:33:59.541Z,78.32
2018-12-04T16:36:27.092Z,78.55
2018-12-04T16:38:54.501Z,78.40
2018-12-04T16:41:22.304Z,78.74
2018-12-04T16:43:49.910Z,79.24
2018-12-04T16:46:17.562Z,79.06
2018-12-04T16:48:45.210Z,79.18
2018-12-04T16:51:13.174Z,79.14
2018-12-04T16:53:40.962Z,79.37
2018-12-04T16:56:08.462Z,79.71
2018-12-04T16:58:36.192Z,79.88
2018-12-04T17:01:03.580Z,80.09
2018-12-04T17:03:31.424Z,80.51
2018-12-04T17:05:58.813Z,80.71
2018-12-04T17:08:26.561Z,81.07
2018-12-04T17:10:54.308Z,81.42
2018-12-04T17:13:22.380Z,81.44
2018-12-04T17:15:49.916Z,81.36
2018-12-04T17:18:17.551Z,81.58
2018-12-04T17:20:44.899Z,82.10
2018-12-04T17:23:12.642Z,82.79
2018-12-04T17:25:40.253Z,83.40
2018-12-04T17:28:07.887Z,83.49
2018-12-04T17:30:35.731Z,83.85
2018-12-04T17:33:03.828Z,83.83
2018-12-04T17:35:31.170Z,83.74
2018-12-04T17:37:58.751Z,83.74
2018-12-04T17:40:26.497Z,83.70
2018-12-04T17:42:54.357Z,83.66
2018-12-04T17:45:21.926Z,83.45
2018-12-04T17:47:49.697Z,83.58
2018-12-04T17:50:17.402Z,83.79
2018-12-04T17:52:44.872Z,84.04
2018-12-04T17:55:12.619Z,84.14
2018-12-04T17:57:40.337Z,84.55
2018-12-04T18:00:09.960Z,84.57
2018-12-04T18:02:37.716Z,84.81
2018-12-04T18:05:05.447Z,84.74
2018-12-04T18:07:33.007Z,85.19
2018-12-04T18:10:00.698Z,85.32
2018-12-04T18:12:28.501Z,85.10
2018-12-04T18:14:56.403Z,85.30
2018-12-04T18:17:24.058Z,85.54
2018-12-04T18:19:51.733Z,85.68
2018-12-04T18:22:20.448Z,85.72
2018-12-04T18:24:48.688Z,85.73
2018-12-04T18:27:16.300Z,86.13
2018-12-04T18:29:43.932Z,86.19
2018-12-04T18:32:11.725Z,86.67
2018-12-04T18:34:39.105Z,87.11
2018-12-04T18:37:06.862Z,87.08
2018-12-04T18:39:34.520Z,87.42
2018-12-04T18:42:02.322Z,87.40
2018-12-04T18:44:30.050Z,87.30
2018-12-04T18:46:57.650Z,87.21
2018-12-04T18:49:25.243Z,87.49
2018-12-04T18:51:52.968Z,87.52
2018-12-04T18:54:20.626Z,87.67
2018-12-04T18:56:48.321Z,87.36
2018-12-04T18:59:15.938Z,87.81
2018-12-04T19:01:43.795Z,87.97
2018-12-04T19:04:11.480Z,88.01
2018-12-04T19:06:39.424Z,88.12
2018-12-04T19:09:07.401Z,88.42
2018-12-04T19:11:35.545Z,88.47
2018-12-04T19:14:03.477Z,88.61
2018-12-04T19:16:31.002Z,88.57
2018-12-04T19:18:58.676Z,88.87
2018-12-04T19:21:26.074Z,89.15
2018-12-04T19:23:53.851Z,89.33
2018-12-04T19:26:21.611Z,89.17
2018-12-04T19:28:52.095Z,89.46
2018-12-04T19:31:19.710Z,89.57
2018-12-04T19:33:47.538Z,89.61
2018-12-04T19:36:15.183Z,89.47
2018-12-04T19:38:42.855Z,89.20
2018-12-04T19:41:10.491Z,89.28
2018-12-04T19:43:38.297Z,89.21
2018-12-04T19:46:05.916Z,89.77
2018-12-04T19:48:33.377Z,89.62
2018-12-04T19:51:00.793Z,89.40
2018-12-04T19:53:28.481Z,89.54
2018-12-04T19:55:56.229Z,89.83
2018-12-04T19:58:23.687Z,89.82
2018-12-04T20:00:51.337Z,89.77
2018-12-04T20:03:18.692Z,89.92
2018-12-04T20:05:46.089Z,90.24
2018-12-04T20:08:14.169Z,89.95
2018-12-04T20:10:41.781Z,90.19
2018-12-04T20:13:09.441Z,90.11
2018-12-04T20:15:37.028Z,90.06
2018-12-04T20:18:05.505Z,90.16
2018-12-04T20:20:32.958Z,90.10
2018-12-04T20:23:00.755Z,90.05
2018-12-04T20:25:35.421Z,90.14
2018-12-04T20:28:04.915Z,90.18
2018-12-04T20:30:36.707Z,90.52
2018-12-04T20:33:04.446Z,90.58
2018-12-04T20:35:31.827Z,90.25
2018-12-04T20:37:59.492Z,90.22
2018-12-04T20:40:31.459Z,90.47
2018-12-04T20:42:56.924Z,90.34
2018-12-04T20:45:24.290Z,90.42
2018-12-04T20:47:51.953Z,90.59
2018-12-04T20:50:19.366Z,90.88
2018-12-04T20:52:46.910Z,90.87
2018-12-04T20:55:14.484Z,90.80
2018-12-04T20:57:42.464Z,90.82
2018-12-04T21:00:11.700Z,91.16
2018-12-04T21:02:39.568Z,90.86
2018-12-04T21:05:09.380Z,91.20
2018-12-04T21:07:38.600Z,91.16
2018-12-04T21:10:06.759Z,90.97
2018-12-04T21:12:34.545Z,91.02
2018-12-04T21:15:02.725Z,90.99
2018-12-04T21:17:30.333Z,91.51
2018-12-04T21:19:58.037Z,91.51
2018-12-04T21:22:25.676Z,91.19
2018-12-04T21:24:53.691Z,91.37
2018-12-04T21:27:27.181Z,91.45
2018-12-04T21:30:00.520Z,91.52
2018-12-04T21:32:34.101Z,91.67
2018-12-04T21:35:07.369Z,91.92
2018-12-04T21:37:40.726Z,91.89
2018-12-04T21:40:14.525Z,92.04
2018-12-04T21:42:47.575Z,91.95
2018-12-04T21:45:20.938Z,91.98
2018-12-04T21:47:57.639Z,92.19
2018-12-04T21:50:25.193Z,91.86
2018-12-04T21:52:52.575Z,92.03
2018-12-04T21:55:20.215Z,92.29
2018-12-04T21:57:47.911Z,91.99
2018-12-04T22:00:17.812Z,91.98
2018-12-04T22:02:45.441Z,91.91
2018-12-04T22:05:13.464Z,91.97
2018-12-04T22:07:41.100Z,92.27
2018-12-04T22:10:08.830Z,92.32
2018-12-04T22:12:36.421Z,92.56
2018-12-04T22:15:04.326Z,92.27
2018-12-04T22:17:32.349Z,92.40
2018-12-04T22:19:59.912Z,92.25
2018-12-04T22:22:27.480Z,91.97
2018-12-04T22:24:55.012Z,91.84
2018-12-04T22:27:22.746Z,91.75
2018-12-04T22:29:50.220Z,91.92
2018-12-04T22:32:17.911Z,92.10
2018-12-04T22:34:45.372Z,92.06
2018-12-04T22:37:12.878Z,91.74
2018-12-04T22:39:41.400Z,91.81
2018-12-04T22:42:09.112Z,91.79
2018-12-04T22:44:36.750Z,91.98
2018-12-04T22:47:04.585Z,92.15
2018-12-04T22:49:32.140Z,91.58
2018-12-04T22:51:59.848Z,91.76
2018-12-04T22:54:27.546Z,92.14
2018-12-04T22:56:55.201Z,92.12
2018-12-04T22:59:22.766Z,91.74
2018-12-04T23:01:50.549Z,91.83
2018-12-04T23:04:18.393Z,92.01
2018-12-04T23:06:46.005Z,91.75
2018-12-04T23:09:13.423Z,92.20
2018-12-04T23:11:41.136Z,91.77
2018-12-04T23:14:08.844Z,92.04
2018-12-04T23:16:36.442Z,91.81
2018-12-04T23:19:04.246Z,91.88
2018-12-04T23:21:31.673Z,92.08
2018-12-04T23:23:59.477Z,92.02
2018-12-04T23:26:27.019Z,91.84
2018-12-04T23:28:54.797Z,92.13
2018-12-04T23:31:23.111Z,92.22
2018-12-04T23:33:50.673Z,92.15
2018-12-04T23:36:18.765Z,92.08
2018-12-04T23:38:46.275Z,92.05
2018-12-04T23:41:13.877Z,92.61
2018-12-04T23:43:41.790Z,91.94
2018-12-04T23:46:09.547Z,92.19
2018-12-04T23:48:37.147Z,91.89
2018-12-04T23:51:04.673Z,91.84
2018-12-04T23:53:32.318Z,91.88
2018-12-04T23:55:59.946Z,91.63
2018-12-04T23:58:27.433Z,91.57
